Time;durP1;ratioP1;P1;durP2;ratioP2;P2;SDS_P1;SDS_P2;PMS_P1;PMS_P2;Temp;Humidity;BMP_temperature;BMP_pressure;BME280_temperature;BME280_humidity;BME280_pressure;Samples;Min_cycle;Max_cycle;Signal;HPM_P1;HPM_P2
2022/08/13 00:00:19;;;;;;;2.50;2.30;;;16.00;82.20;;;;;;5102087;27;20209;-61
2022/08/13 00:02:44;;;;;;;2.30;2.10;;;16.00;82.10;;;;;;5116000;27;20191;-61
2022/08/13 00:05:10;;;;;;;3.87;2.60;;;16.00;82.10;;;;;;5098924;27;20227;-61
2022/08/13 00:07:38;;;;;;;3.17;2.87;;;16.10;81.70;;;;;;5108368;27;20183;-61
2022/08/13 00:10:08;;;;;;;3.80;2.50;;;16.10;81.50;;;;;;5080005;28;20184;-61
2022/08/13 00:15:28;;;;;;;2.93;2.70;;;16.10;81.30;;;;;;5120141;27;20202;-61
2022/08/13 00:17:59;;;;;;;3.17;2.60;;;16.10;81.20;;;;;;5116906;27;20206;-61
2022/08/13 00:20:28;;;;;;;4.63;2.60;;;16.10;81.10;;;;;;5097185;28;20180;-61
2022/08/13 00:22:56;;;;;;;6.23;2.90;;;16.10;81.00;;;;;;5107878;27;20194;-61
2022/08/13 00:25:23;;;;;;;3.10;2.70;;;16.10;80.90;;;;;;5112533;27;20231;-61
2022/08/13 00:27:56;;;;;;;4.33;2.80;;;16.10;81.00;;;;;;5132298;27;20180;-61
2022/08/13 00:30:33;;;;;;;4.97;2.70;;;16.20;80.50;;;;;;5087528;27;20184;-61
2022/08/13 00:33:22;;;;;;;4.20;2.47;;;16.20;80.50;;;;;;5116614;27;20211;-61
2022/08/13 00:35:50;;;;;;;4.03;2.90;;;16.20;80.20;;;;;;5110493;28;20176;-61
2022/08/13 00:38:28;;;;;;;4.87;2.97;;;16.20;80.20;;;;;;5130907;27;20188;-61
2022/08/13 00:40:59;;;;;;;3.97;3.13;;;16.20;80.30;;;;;;5134628;27;20179;-61
2022/08/13 00:43:27;;;;;;;3.50;2.70;;;16.20;80.20;;;;;;5134794;27;20195;-61
2022/08/13 00:45:54;;;;;;;3.63;2.67;;;16.20;80.30;;;;;;5099528;27;20195;-61
2022/08/13 00:51:06;;;;;;;3.30;2.60;;;16.20;80.10;;;;;;5119427;27;20199;-61
2022/08/13 00:53:32;;;;;;;3.90;2.70;;;16.20;80.20;;;;;;5099416;27;20207;-61
2022/08/13 00:55:59;;;;;;;3.77;2.83;;;16.20;80.30;;;;;;5116379;27;20289;-61
2022/08/13 00:58:27;;;;;;;3.87;3.00;;;16.20;80.40;;;;;;5099498;27;20229;-61
2022/08/13 01:00:58;;;;;;;5.00;3.17;;;16.20;80.00;;;;;;5134282;27;20202;-61
2022/08/13 01:03:29;;;;;;;4.17;3.00;;;16.20;79.90;;;;;;5115971;27;20274;-61
2022/08/13 01:05:59;;;;;;;3.97;3.57;;;16.20;79.90;;;;;;5134200;27;20191;-61
2022/08/13 01:08:27;;;;;;;3.30;2.70;;;16.30;79.40;;;;;;5116096;27;20220;-61
2022/08/13 01:10:56;;;;;;;5.47;3.50;;;16.30;79.40;;;;;;5116017;27;20191;-61
2022/08/13 01:13:25;;;;;;;4.53;3.50;;;16.30;79.30;;;;;;5134383;27;20188;-61
2022/08/13 01:15:52;;;;;;;3.70;3.40;;;16.30;78.80;;;;;;5115953;27;20184;-61
2022/08/13 01:18:24;;;;;;;5.03;3.40;;;16.40;78.40;;;;;;5098857;28;20203;-61
2022/08/13 01:21:02;;;;;;;3.33;3.03;;;16.40;78.60;;;;;;5116008;28;20187;-61
2022/08/13 01:23:29;;;;;;;3.60;2.97;;;16.40;78.70;;;;;;5114127;28;20246;-61
2022/08/13 01:25:57;;;;;;;4.80;3.60;;;16.30;78.70;;;;;;5095020;28;20195;-61
2022/08/13 01:28:23;;;;;;;4.33;3.27;;;16.30;78.80;;;;;;5078864;28;20326;-61
2022/08/13 01:30:52;;;;;;;3.40;3.10;;;16.30;78.90;;;;;;5111750;28;20274;-61
2022/08/13 01:33:18;;;;;;;3.47;3.00;;;16.30;79.00;;;;;;5132109;28;20188;-61
2022/08/13 01:35:49;;;;;;;3.23;2.97;;;16.30;78.70;;;;;;5091065;28;20212;-61
2022/08/13 01:38:15;;;;;;;3.77;3.47;;;16.30;78.90;;;;;;5105007;28;20189;-61
2022/08/13 01:40:44;;;;;;;4.93;3.70;;;16.20;78.20;;;;;;5098620;28;20251;-61
2022/08/13 01:43:11;;;;;;;4.10;3.63;;;16.30;78.60;;;;;;5130213;28;20180;-61
2022/08/13 01:45:37;;;;;;;4.43;3.50;;;16.30;78.80;;;;;;5112066;28;20243;-61
2022/08/13 01:50:48;;;;;;;3.87;3.53;;;16.30;77.90;;;;;;5133619;28;20186;-61
2022/08/13 01:53:16;;;;;;;3.87;3.47;;;16.30;78.00;;;;;;5098178;28;20262;-61
2022/08/13 01:55:44;;;;;;;4.40;3.97;;;16.30;78.10;;;;;;5110717;28;20219;-61
2022/08/13 01:58:20;;;;;;;5.53;4.10;;;16.30;77.80;;;;;;5107921;28;20179;-61
2022/08/13 02:00:52;;;;;;;4.53;3.70;;;16.30;77.70;;;;;;5107752;28;20229;-61
2022/08/13 02:03:19;;;;;;;7.10;4.50;;;16.30;77.70;;;;;;5115565;28;20206;-61
2022/08/13 02:05:49;;;;;;;6.43;5.03;;;16.30;76.80;;;;;;5115676;28;20179;-61
2022/08/13 02:08:20;;;;;;;5.20;4.30;;;16.40;77.00;;;;;;5098832;28;20172;-61
2022/08/13 02:10:47;;;;;;;5.10;4.60;;;16.50;77.10;;;;;;5110702;27;20301;-61
2022/08/13 02:13:16;;;;;;;4.43;4.03;;;16.50;76.90;;;;;;5102461;27;20313;-61
2022/08/13 02:15:43;;;;;;;5.77;4.23;;;16.40;76.90;;;;;;5137587;27;20701;-61
2022/08/13 02:18:17;;;;;;;4.63;4.07;;;16.50;77.10;;;;;;5119425;27;20182;-61
2022/08/13 02:20:45;;;;;;;6.30;3.90;;;16.50;77.30;;;;;;5119287;27;20266;-61
2022/08/13 02:23:16;;;;;;;4.73;3.80;;;16.50;77.30;;;;;;5087956;27;20188;-61
2022/08/13 02:25:45;;;;;;;4.37;3.97;;;16.50;76.80;;;;;;5137427;27;20183;-61
2022/08/13 02:28:14;;;;;;;4.87;4.37;;;16.50;76.90;;;;;;5119315;27;20184;-61
2022/08/13 02:30:40;;;;;;;4.20;3.80;;;16.50;77.10;;;;;;5102946;27;20190;-61
2022/08/13 02:33:06;;;;;;;4.37;3.97;;;16.50;77.40;;;;;;5098769;27;20188;-61
2022/08/13 02:35:35;;;;;;;4.57;4.13;;;16.50;77.40;;;;;;5097149;28;20196;-61
2022/08/13 02:38:01;;;;;;;5.97;3.83;;;16.50;77.40;;;;;;5111615;27;20194;-61
2022/08/13 02:43:12;;;;;;;3.93;3.53;;;16.40;78.00;;;;;;5100732;27;20200;-61
2022/08/13 02:45:39;;;;;;;4.67;3.83;;;16.40;78.30;;;;;;5115646;27;20188;-61
2022/08/13 02:48:08;;;;;;;4.00;3.70;;;16.40;78.50;;;;;;5115915;27;20172;-61
2022/08/13 02:50:42;;;;;;;4.17;3.83;;;16.50;78.50;;;;;;5115546;27;20179;-61
2022/08/13 02:53:10;;;;;;;5.83;4.43;;;16.50;78.30;;;;;;5119918;27;20181;-61
2022/08/13 02:55:36;;;;;;;4.63;4.23;;;16.50;77.80;;;;;;5115724;27;20184;-61
2022/08/13 02:58:03;;;;;;;4.80;4.40;;;16.50;78.10;;;;;;5102000;27;20188;-61
2022/08/13 03:00:30;;;;;;;5.63;4.20;;;16.50;78.30;;;;;;5113939;27;20188;-61
2022/08/13 03:02:57;;;;;;;6.47;4.27;;;16.50;78.40;;;;;;5105837;27;20187;-61
2022/08/13 03:05:23;;;;;;;4.90;4.27;;;16.50;78.30;;;;;;5115510;27;20196;-61
2022/08/13 03:07:50;;;;;;;4.67;4.03;;;16.50;78.20;;;;;;5118256;27;20237;-61
2022/08/13 03:10:19;;;;;;;5.47;4.23;;;16.60;78.30;;;;;;5115788;27;20180;-61
2022/08/13 03:12:53;;;;;;;4.23;3.83;;;16.60;78.20;;;;;;5136265;27;20197;-61
2022/08/13 03:15:22;;;;;;;6.07;5.03;;;16.50;78.40;;;;;;5118287;27;20194;-61
2022/08/13 03:17:47;;;;;;;6.30;5.00;;;16.40;77.60;;;;;;5118412;27;20187;-61
2022/08/13 03:20:17;;;;;;;6.13;5.07;;;16.40;76.10;;;;;;5118430;27;20191;-61
2022/08/13 03:22:47;;;;;;;5.07;4.57;;;16.40;75.80;;;;;;5114127;28;20280;-61
2022/08/13 03:25:14;;;;;;;6.00;4.60;;;16.50;75.20;;;;;;5103065;28;20238;-61
2022/08/13 03:27:40;;;;;;;5.27;4.77;;;16.60;74.70;;;;;;5100300;27;20195;-61
2022/08/13 03:30:07;;;;;;;4.67;4.23;;;16.60;75.20;;;;;;5117966;27;20177;-61
2022/08/13 03:32:40;;;;;;;6.23;5.50;;;16.70;75.70;;;;;;5135996;27;20204;-61
2022/08/13 03:35:08;;;;;;;8.57;6.00;;;16.70;76.70;;;;;;5135951;27;20185;-61
2022/08/13 03:37:35;;;;;;;12.17;6.97;;;16.70;78.50;;;;;;5109598;27;20191;-61
2022/08/13 03:40:02;;;;;;;6.80;6.10;;;16.60;80.10;;;;;;5116684;27;20196;-60
2022/08/13 03:42:27;;;;;;;8.20;6.17;;;16.50;81.10;;;;;;5113161;27;20270;-60
2022/08/13 03:44:54;;;;;;;8.07;6.80;;;16.40;83.50;;;;;;5083801;27;20302;-60
2022/08/13 03:47:20;;;;;;;7.60;6.83;;;16.30;83.20;;;;;;5097643;28;20188;-60
2022/08/13 03:49:46;;;;;;;8.20;7.40;;;16.20;84.20;;;;;;5083362;27;20180;-60
2022/08/13 03:52:13;;;;;;;8.40;7.00;;;16.20;85.10;;;;;;5099398;27;20184;-60
2022/08/13 03:54:40;;;;;;;7.67;6.93;;;16.10;85.90;;;;;;5116965;27;20646;-60
2022/08/13 03:57:06;;;;;;;7.53;6.53;;;16.10;86.60;;;;;;5093978;27;20195;-60
2022/08/13 03:59:32;;;;;;;6.60;5.90;;;16.00;86.40;;;;;;5098511;27;20241;-60
2022/08/13 04:02:01;;;;;;;6.90;5.77;;;16.00;86.50;;;;;;5129269;27;20184;-60
2022/08/13 04:04:27;;;;;;;10.33;6.33;;;16.00;86.70;;;;;;5092509;27;20204;-60
2022/08/13 04:06:53;;;;;;;7.53;6.40;;;15.90;87.00;;;;;;5135537;27;20175;-60
2022/08/13 04:09:18;;;;;;;9.93;6.37;;;15.90;87.20;;;;;;5090581;28;20245;-60
2022/08/13 04:11:46;;;;;;;7.93;7.07;;;15.90;87.40;;;;;;5081589;27;20215;-60
2022/08/13 04:14:12;;;;;;;6.67;6.07;;;15.90;87.30;;;;;;5102319;28;20260;-60
2022/08/13 04:16:39;;;;;;;7.37;5.73;;;15.90;87.30;;;;;;5115547;27;20180;-60
2022/08/13 04:19:06;;;;;;;7.07;6.37;;;15.90;87.30;;;;;;5117375;27;20187;-60
2022/08/13 04:21:33;;;;;;;6.47;5.87;;;15.90;87.10;;;;;;5117093;27;20181;-61
2022/08/13 04:24:02;;;;;;;9.97;6.47;;;15.90;86.70;;;;;;5099887;27;20239;-61
2022/08/13 04:26:29;;;;;;;6.87;6.17;;;15.90;86.70;;;;;;5117158;27;20195;-61
2022/08/13 04:28:55;;;;;;;7.57;6.87;;;16.00;86.90;;;;;;5116816;27;20184;-61
2022/08/13 04:31:21;;;;;;;8.43;6.97;;;16.00;86.90;;;;;;5116698;27;20190;-61
2022/08/13 04:33:46;;;;;;;7.87;7.07;;;15.90;86.40;;;;;;5096631;27;20183;-61
2022/08/13 04:36:12;;;;;;;8.53;7.17;;;15.90;86.70;;;;;;5134989;27;20179;-61
2022/08/13 04:38:38;;;;;;;7.10;6.40;;;15.90;86.90;;;;;;5099570;27;20192;-61
2022/08/13 04:41:04;;;;;;;7.17;6.47;;;15.90;87.00;;;;;;5113313;28;20184;-61
2022/08/13 04:43:30;;;;;;;6.50;5.90;;;16.00;87.00;;;;;;5112271;27;20198;-61
2022/08/13 04:45:58;;;;;;;8.27;6.47;;;16.00;86.20;;;;;;5100129;27;20262;-61
2022/08/13 04:48:25;;;;;;;8.23;7.00;;;16.00;86.50;;;;;;5102009;28;20192;-61
2022/08/13 04:50:52;;;;;;;10.97;7.63;;;16.00;86.50;;;;;;5116062;27;20237;-61
2022/08/13 04:53:20;;;;;;;8.43;7.53;;;16.00;86.60;;;;;;5086236;28;20237;-61
2022/08/13 04:55:46;;;;;;;7.50;6.80;;;16.00;86.90;;;;;;5115041;27;20211;-61
2022/08/13 04:58:12;;;;;;;7.67;6.23;;;16.00;86.70;;;;;;5095563;28;20204;-61
2022/08/13 05:00:38;;;;;;;7.93;7.13;;;16.00;86.50;;;;;;5121314;27;20191;-61
2022/08/13 05:03:15;;;;;;;7.57;6.87;;;16.00;86.60;;;;;;5078661;27;20184;-61
2022/08/13 05:05:43;;;;;;;7.87;7.07;;;16.00;86.70;;;;;;5090083;28;20212;-61
2022/08/13 05:08:10;;;;;;;8.30;7.40;;;16.00;86.90;;;;;;5104853;27;20177;-61
2022/08/13 05:10:38;;;;;;;8.20;6.83;;;16.00;87.10;;;;;;5096022;28;20187;-61
2022/08/13 05:13:27;;;;;;;7.37;6.67;;;16.00;86.80;;;;;;5093950;28;20187;-61
2022/08/13 05:15:56;;;;;;;8.83;7.23;;;16.00;86.80;;;;;;5116270;27;20180;-61
2022/08/13 05:18:23;;;;;;;9.30;6.83;;;16.00;86.90;;;;;;5116151;27;20183;-61
2022/08/13 05:20:51;;;;;;;8.40;7.33;;;16.10;87.10;;;;;;5099033;28;20191;-61
2022/08/13 05:23:17;;;;;;;8.20;7.40;;;16.10;87.10;;;;;;5098384;28;20240;-61
2022/08/13 05:25:43;;;;;;;7.90;7.10;;;16.10;86.80;;;;;;5113802;28;20192;-61
2022/08/13 05:28:09;;;;;;;8.17;7.37;;;16.20;86.80;;;;;;5098750;28;20247;-61
2022/08/13 05:30:38;;;;;;;8.50;7.27;;;16.20;86.90;;;;;;5098970;28;20184;-61
2022/08/13 05:33:16;;;;;;;8.20;7.40;;;16.10;86.90;;;;;;5115682;28;20194;-61
2022/08/13 05:35:44;;;;;;;8.53;7.00;;;16.10;86.70;;;;;;5110190;28;20176;-61
2022/08/13 05:38:10;;;;;;;10.33;7.53;;;16.10;85.90;;;;;;5092095;28;20191;-62
2022/08/13 05:40:38;;;;;;;8.67;6.67;;;16.20;86.00;;;;;;5095622;28;20291;-60
2022/08/13 05:43:10;;;;;;;9.13;8.20;;;16.20;86.40;;;;;;5113699;28;20187;-60
2022/08/13 05:45:37;;;;;;;8.00;7.20;;;16.20;86.20;;;;;;5115684;27;20208;-60
2022/08/13 05:48:03;;;;;;;8.70;7.80;;;16.20;84.80;;;;;;5097077;27;20190;-60
2022/08/13 05:50:33;;;;;;;7.53;6.80;;;16.10;84.30;;;;;;5084865;27;20180;-60
2022/08/13 05:53:10;;;;;;;9.10;6.30;;;16.10;84.30;;;;;;5100294;27;20184;-60
2022/08/13 05:55:38;;;;;;;11.33;7.20;;;16.00;82.90;;;;;;5117512;27;20235;-59
2022/08/13 05:58:05;;;;;;;8.90;7.40;;;16.10;83.80;;;;;;5115383;27;20184;-60
2022/08/13 06:03:31;;;;;;;8.30;7.37;;;15.90;81.80;;;;;;5120092;27;20221;-59
2022/08/13 06:06:23;;;;;;;7.97;6.87;;;15.90;81.90;;;;;;5091692;27;20179;-59
2022/08/13 06:08:48;;;;;;;7.40;6.70;;;15.90;82.40;;;;;;5127011;27;20220;-60
2022/08/13 06:11:17;;;;;;;9.03;7.17;;;15.90;81.50;;;;;;5103069;27;20211;-60
2022/08/13 06:13:45;;;;;;;8.17;7.10;;;15.90;82.60;;;;;;5106487;27;20192;-60
2022/08/13 06:16:16;;;;;;;8.70;7.83;;;16.00;82.20;;;;;;5114704;27;20184;-60
2022/08/13 06:18:49;;;;;;;8.93;7.30;;;16.00;82.80;;;;;;5097390;27;20198;-60
2022/08/13 06:21:17;;;;;;;8.57;7.67;;;16.10;83.00;;;;;;5116486;27;20190;-60
2022/08/13 06:23:45;;;;;;;7.93;7.23;;;16.00;81.60;;;;;;5113375;27;20239;-60
2022/08/13 06:26:14;;;;;;;8.30;6.93;;;16.00;81.70;;;;;;5116418;27;20236;-60
2022/08/13 06:28:40;;;;;;;8.40;7.27;;;16.00;80.30;;;;;;5098635;27;20191;-60
2022/08/13 06:31:14;;;;;;;8.13;7.33;;;16.10;81.40;;;;;;5099989;27;20192;-60
2022/08/13 06:33:40;;;;;;;7.40;6.60;;;16.20;81.70;;;;;;5100858;27;20192;-60
2022/08/13 06:36:16;;;;;;;7.80;7.10;;;16.20;80.70;;;;;;5111381;27;20221;-60
2022/08/13 06:38:42;;;;;;;9.67;6.80;;;16.30;81.40;;;;;;5116913;27;20190;-59
2022/08/13 06:41:10;;;;;;;8.17;6.90;;;16.30;80.30;;;;;;5117181;27;20182;-60
2022/08/13 06:44:03;;;;;;;7.40;6.70;;;16.30;81.60;;;;;;5114537;28;20195;-60
2022/08/13 06:46:30;;;;;;;7.80;7.00;;;16.30;80.20;;;;;;5112849;27;20222;-60
2022/08/13 06:48:59;;;;;;;7.33;6.37;;;16.30;80.50;;;;;;5093910;27;20198;-59
2022/08/13 06:51:25;;;;;;;7.27;6.53;;;16.40;80.80;;;;;;5113329;27;20187;-59
2022/08/13 06:53:50;;;;;;;7.00;6.30;;;16.50;81.20;;;;;;5112437;27;20180;-59
2022/08/13 06:56:22;;;;;;;6.67;5.97;;;16.50;81.70;;;;;;5082866;27;20196;-59
2022/08/13 06:58:51;;;;;;;8.23;7.03;;;16.50;80.30;;;;;;5116296;27;20217;-59
2022/08/13 07:01:22;;;;;;;7.10;6.40;;;16.60;80.80;;;;;;5133518;27;20209;-59
2022/08/13 07:03:49;;;;;;;6.50;5.83;;;16.60;80.90;;;;;;5122141;27;20216;-59
2022/08/13 07:06:25;;;;;;;7.97;5.73;;;16.70;80.20;;;;;;5094388;27;20234;-59
2022/08/13 07:08:57;;;;;;;6.40;5.80;;;16.70;79.90;;;;;;5117553;27;20180;-59
2022/08/13 07:11:28;;;;;;;7.43;6.33;;;16.80;80.50;;;;;;5095830;28;20220;-59
2022/08/13 07:13:57;;;;;;;6.80;6.13;;;16.80;80.00;;;;;;5112279;27;20179;-59
2022/08/13 07:16:24;;;;;;;8.70;6.07;;;16.80;80.00;;;;;;5118023;27;20179;-59
2022/08/13 07:18:51;;;;;;;6.00;5.20;;;16.80;78.70;;;;;;5101076;27;20244;-59
2022/08/13 07:21:24;;;;;;;7.00;6.17;;;16.80;79.00;;;;;;5135531;27;20194;-60
2022/08/13 07:23:51;;;;;;;5.53;5.03;;;16.90;79.50;;;;;;5099558;27;20227;-60
2022/08/13 07:26:18;;;;;;;6.30;5.17;;;16.90;77.50;;;;;;5097606;28;20190;-60
2022/08/13 07:28:46;;;;;;;5.53;5.10;;;16.90;77.10;;;;;;5113658;27;20190;-60
2022/08/13 07:31:13;;;;;;;6.00;5.50;;;16.90;76.90;;;;;;5118009;27;20172;-60
2022/08/13 07:33:48;;;;;;;6.20;5.70;;;16.90;75.80;;;;;;5117896;27;20211;-60
2022/08/13 07:36:14;;;;;;;6.20;5.60;;;16.90;77.30;;;;;;5118733;27;20198;-60
2022/08/13 07:38:43;;;;;;;5.30;4.80;;;17.00;76.90;;;;;;5101838;27;20199;-60
2022/08/13 07:41:12;;;;;;;5.77;5.27;;;17.00;76.10;;;;;;5109564;27;20203;-60
2022/08/13 07:43:41;;;;;;;6.00;5.40;;;17.00;75.30;;;;;;5101589;27;20223;-60
2022/08/13 07:46:10;;;;;;;5.87;5.10;;;17.10;76.20;;;;;;5087960;27;20204;-60
2022/08/13 07:48:38;;;;;;;8.30;5.43;;;17.10;76.40;;;;;;5101096;27;20183;-59
2022/08/13 07:51:06;;;;;;;6.60;5.27;;;17.10;75.10;;;;;;5109131;28;20184;-60
2022/08/13 07:53:37;;;;;;;5.60;5.10;;;17.10;74.80;;;;;;5096918;27;20209;-60
2022/08/13 07:56:06;;;;;;;5.63;5.13;;;17.10;75.70;;;;;;5103991;27;20299;-60
2022/08/13 07:58:34;;;;;;;5.67;5.17;;;17.10;74.00;;;;;;5135044;27;20192;-60
2022/08/13 08:01:01;;;;;;;6.20;5.53;;;17.10;75.00;;;;;;5112234;28;20181;-59
2022/08/13 08:03:32;;;;;;;5.90;5.20;;;17.10;76.30;;;;;;5129057;27;20289;-60
2022/08/13 08:05:59;;;;;;;6.03;5.43;;;17.10;75.30;;;;;;5130190;27;20179;-60
2022/08/13 08:08:26;;;;;;;5.50;5.00;;;17.10;76.40;;;;;;5103869;27;20252;-60
2022/08/13 08:10:54;;;;;;;7.90;5.73;;;17.20;77.00;;;;;;5113843;28;20181;-60
2022/08/13 08:13:20;;;;;;;6.27;5.67;;;17.30;76.70;;;;;;5096499;27;20183;-60
2022/08/13 08:15:46;;;;;;;5.23;4.73;;;17.30;77.10;;;;;;5135342;27;20187;-60
2022/08/13 08:18:13;;;;;;;6.47;5.87;;;17.30;77.50;;;;;;5116932;27;20184;-60
2022/08/13 08:20:42;;;;;;;6.47;5.80;;;17.30;77.20;;;;;;5135353;27;20233;-60
2022/08/13 08:23:10;;;;;;;6.27;5.67;;;17.40;77.70;;;;;;5115997;27;20184;-60
2022/08/13 08:25:36;;;;;;;5.13;4.73;;;17.50;78.20;;;;;;5102615;27;20294;-60
2022/08/13 08:28:02;;;;;;;5.17;4.60;;;17.50;78.90;;;;;;5114048;27;20188;-61
2022/08/13 08:30:28;;;;;;;5.83;5.33;;;17.60;79.40;;;;;;5097106;27;20215;-63
2022/08/13 08:32:56;;;;;;;5.90;5.30;;;17.80;79.50;;;;;;5099840;27;20184;-61
2022/08/13 08:35:23;;;;;;;6.00;5.40;;;17.80;77.70;;;;;;5086865;27;20220;-61
2022/08/13 08:43:35;;;;;;;5.37;4.87;;;17.80;76.60;;;;;;5130532;27;20202;-61
2022/08/13 08:46:03;;;;;;;5.67;5.17;;;17.80;76.20;;;;;;5110326;28;20272;-61
2022/08/13 08:48:30;;;;;;;5.80;5.03;;;17.80;76.50;;;;;;5111086;27;20188;-61
2022/08/13 08:50:57;;;;;;;5.07;4.67;;;17.80;77.20;;;;;;5116128;27;20196;-61
2022/08/13 08:53:24;;;;;;;5.23;4.80;;;17.80;77.40;;;;;;5096587;27;20203;-61
2022/08/13 08:55:51;;;;;;;5.60;4.97;;;17.90;77.70;;;;;;5110772;28;20191;-61
2022/08/13 08:58:21;;;;;;;5.10;4.60;;;17.90;78.20;;;;;;5097759;27;20287;-61
2022/08/13 09:00:48;;;;;;;7.77;5.33;;;18.00;78.00;;;;;;5095288;27;20194;-61
2022/08/13 09:03:18;;;;;;;5.97;5.07;;;18.10;76.60;;;;;;5116141;27;20198;-61
2022/08/13 09:05:48;;;;;;;5.67;5.13;;;18.20;77.20;;;;;;5099121;27;20219;-61
2022/08/13 09:08:16;;;;;;;6.77;5.57;;;18.30;77.50;;;;;;5097696;27;20199;-61
2022/08/13 09:10:46;;;;;;;5.90;5.40;;;18.40;76.60;;;;;;5114964;27;20202;-61
2022/08/13 09:13:19;;;;;;;5.27;4.70;;;18.50;76.80;;;;;;5133418;27;20175;-61
2022/08/13 09:15:46;;;;;;;5.77;5.20;;;18.60;76.60;;;;;;5094714;28;20196;-61
2022/08/13 09:18:16;;;;;;;4.77;4.37;;;18.60;75.70;;;;;;5111647;28;20207;-61
2022/08/13 09:20:43;;;;;;;5.17;4.67;;;18.70;76.50;;;;;;5091352;28;20203;-61
2022/08/13 09:23:14;;;;;;;5.53;4.97;;;18.80;77.20;;;;;;5109891;27;20188;-61
2022/08/13 09:25:48;;;;;;;6.00;5.40;;;18.90;77.70;;;;;;5098287;28;20267;-61
2022/08/13 09:28:23;;;;;;;8.03;5.23;;;19.00;78.10;;;;;;5111923;28;20227;-61
2022/08/13 09:30:51;;;;;;;5.77;5.20;;;19.00;76.90;;;;;;5096628;28;20211;-61
2022/08/13 09:33:18;;;;;;;5.87;5.33;;;19.00;75.90;;;;;;5095184;28;20184;-61
2022/08/13 09:35:44;;;;;;;5.17;4.77;;;19.10;76.10;;;;;;5096685;28;20188;-61
2022/08/13 09:38:10;;;;;;;5.70;5.20;;;19.10;76.70;;;;;;5095961;28;20268;-61
2022/08/13 09:40:54;;;;;;;5.10;4.70;;;19.10;76.80;;;;;;5112695;28;20196;-61
2022/08/13 09:43:27;;;;;;;5.87;4.83;;;19.10;77.20;;;;;;5114174;28;20231;-61
2022/08/13 09:45:53;;;;;;;4.97;4.57;;;19.00;76.80;;;;;;5109377;28;20216;-61
2022/08/13 09:48:20;;;;;;;5.50;5.00;;;19.00;77.20;;;;;;5072249;28;20191;-61
2022/08/13 09:50:46;;;;;;;5.17;4.77;;;19.00;77.40;;;;;;5078580;28;20279;-61
2022/08/13 09:53:12;;;;;;;5.10;4.60;;;18.90;77.90;;;;;;5077475;28;20284;-61
2022/08/13 09:55:39;;;;;;;5.37;4.90;;;18.90;78.10;;;;;;5105238;28;20185;-61
2022/08/13 09:58:05;;;;;;;8.17;5.50;;;19.00;77.50;;;;;;5095349;28;20220;-61
2022/08/13 10:00:33;;;;;;;5.33;4.20;;;18.90;77.00;;;;;;5095253;28;20193;-61
2022/08/13 10:03:01;;;;;;;5.43;4.70;;;18.90;77.30;;;;;;5112076;28;20185;-61
2022/08/13 10:05:34;;;;;;;5.30;4.80;;;19.00;77.10;;;;;;5086885;28;20218;-61
2022/08/13 10:08:04;;;;;;;4.73;4.33;;;19.00;77.30;;;;;;5104675;28;20177;-61
2022/08/13 10:10:30;;;;;;;4.37;4.03;;;19.00;77.50;;;;;;5112902;28;20181;-61
2022/08/13 10:13:00;;;;;;;4.90;4.50;;;19.10;77.40;;;;;;5081795;28;20204;-60
2022/08/13 10:15:26;;;;;;;6.47;4.03;;;19.10;77.70;;;;;;5113089;28;20212;-61
2022/08/13 10:17:55;;;;;;;4.40;4.00;;;19.20;77.90;;;;;;5113933;28;20200;-61
2022/08/13 10:20:22;;;;;;;6.00;4.77;;;19.30;78.30;;;;;;5096426;28;20188;-61
2022/08/13 10:22:49;;;;;;;6.53;4.40;;;19.30;78.10;;;;;;5113166;28;20231;-61
2022/08/13 10:25:16;;;;;;;4.00;3.57;;;19.30;78.20;;;;;;5111866;28;20228;-61
2022/08/13 10:27:42;;;;;;;3.30;3.00;;;19.30;78.30;;;;;;5078721;28;20197;-61
2022/08/13 10:30:08;;;;;;;4.90;3.40;;;19.30;78.90;;;;;;5113256;28;20180;-61
2022/08/13 10:32:34;;;;;;;4.67;3.60;;;19.20;79.50;;;;;;5097884;28;20188;-61
2022/08/13 10:35:03;;;;;;;3.57;3.27;;;19.20;81.40;;;;;;5099556;28;20196;-60
2022/08/13 10:37:29;;;;;;;4.30;3.90;;;19.10;80.80;;;;;;5080151;28;20227;-62
2022/08/13 10:39:58;;;;;;;4.30;3.90;;;19.00;81.20;;;;;;5095962;28;20268;-63
2022/08/13 10:42:25;;;;;;;4.50;4.10;;;18.90;81.00;;;;;;5099367;28;20189;-61
2022/08/13 10:44:55;;;;;;;4.03;3.63;;;18.90;80.40;;;;;;5116407;28;20205;-63
2022/08/13 10:47:24;;;;;;;4.50;3.70;;;18.80;81.00;;;;;;5116431;28;20209;-61
2022/08/13 10:49:51;;;;;;;4.43;4.03;;;18.80;81.20;;;;;;5099728;28;20193;-61
2022/08/13 10:52:20;;;;;;;4.33;3.93;;;18.90;80.70;;;;;;5099233;28;20177;-62
2022/08/13 10:54:48;;;;;;;3.77;3.47;;;18.80;80.40;;;;;;5114666;28;20288;-62
2022/08/13 10:57:14;;;;;;;4.57;3.80;;;18.80;80.50;;;;;;5114742;28;20188;-62
2022/08/13 10:59:43;;;;;;;4.20;3.80;;;18.80;80.20;;;;;;5095820;28;20217;-62
2022/08/13 11:02:09;;;;;;;3.50;3.20;;;18.90;80.40;;;;;;5114630;28;20213;-61
2022/08/13 11:04:36;;;;;;;4.93;3.97;;;18.90;80.30;;;;;;5099034;28;20258;-61
2022/08/13 11:07:10;;;;;;;3.77;3.47;;;19.00;80.30;;;;;;5081532;28;20255;-62
2022/08/13 11:09:37;;;;;;;4.23;3.80;;;19.00;78.10;;;;;;5093410;28;20188;-62
2022/08/13 11:12:05;;;;;;;3.37;3.07;;;18.90;79.10;;;;;;5082352;28;20188;-62
2022/08/13 11:14:32;;;;;;;3.70;3.20;;;19.00;77.90;;;;;;5115575;27;20189;-62
2022/08/13 11:16:58;;;;;;;4.10;3.47;;;18.90;76.60;;;;;;5094161;28;20188;-63
2022/08/13 11:19:29;;;;;;;3.60;3.30;;;18.90;77.70;;;;;;5097512;28;20200;-62
2022/08/13 11:21:55;;;;;;;4.00;3.60;;;18.90;77.90;;;;;;5098244;28;20188;-62
2022/08/13 11:24:21;;;;;;;4.10;3.70;;;18.80;76.10;;;;;;5109726;28;20232;-62
2022/08/13 11:26:47;;;;;;;3.50;3.20;;;18.80;77.30;;;;;;5087622;28;20185;-62
2022/08/13 11:29:16;;;;;;;4.30;3.90;;;18.80;76.10;;;;;;5112563;28;20196;-62
2022/08/13 11:31:41;;;;;;;4.03;3.33;;;18.80;76.40;;;;;;5114361;28;20225;-62
2022/08/13 11:34:07;;;;;;;3.57;3.13;;;18.80;76.60;;;;;;5093703;28;20181;-62
2022/08/13 11:36:34;;;;;;;3.90;3.47;;;18.90;76.40;;;;;;5109009;28;20196;-62
2022/08/13 11:39:00;;;;;;;3.70;3.40;;;19.10;78.10;;;;;;5114306;28;20204;-62
2022/08/13 11:41:26;;;;;;;4.10;3.27;;;19.20;77.00;;;;;;5079016;28;20222;-62
2022/08/13 11:43:52;;;;;;;4.17;3.77;;;19.30;76.40;;;;;;5112279;28;20192;-62
2022/08/13 11:46:19;;;;;;;4.63;3.57;;;19.30;75.80;;;;;;5112635;28;20188;-62
2022/08/13 11:48:45;;;;;;;4.63;3.63;;;19.50;75.60;;;;;;5095758;28;20176;-62
2022/08/13 11:51:11;;;;;;;3.73;3.43;;;19.60;76.10;;;;;;5115645;28;20180;-62
2022/08/13 11:53:36;;;;;;;3.77;3.47;;;19.70;74.70;;;;;;5097788;28;20212;-62
2022/08/13 11:56:02;;;;;;;3.97;3.60;;;19.80;76.10;;;;;;5077953;28;20228;-61
2022/08/13 11:58:29;;;;;;;3.70;3.40;;;19.80;75.80;;;;;;5074814;28;20188;-62
2022/08/13 12:00:54;;;;;;;3.97;3.53;;;20.00;75.10;;;;;;5079098;28;20181;-61
2022/08/13 12:03:21;;;;;;;3.63;3.33;;;20.00;73.90;;;;;;5094579;28;20188;-62
2022/08/13 12:05:47;;;;;;;3.67;3.37;;;20.00;73.80;;;;;;5112578;28;20287;-62
2022/08/13 12:08:17;;;;;;;3.70;3.40;;;20.10;74.90;;;;;;5106534;28;20212;-62
2022/08/13 12:10:44;;;;;;;5.03;3.30;;;20.10;73.10;;;;;;5112102;28;20189;-62
2022/08/13 12:13:10;;;;;;;3.87;3.57;;;20.10;72.60;;;;;;5110333;28;20181;-62
2022/08/13 12:15:35;;;;;;;3.60;3.07;;;20.10;74.00;;;;;;5107782;28;20185;-62
2022/08/13 12:18:01;;;;;;;3.27;2.97;;;20.20;73.60;;;;;;5096375;28;20185;-62
2022/08/13 12:20:27;;;;;;;4.00;3.40;;;20.20;72.60;;;;;;5110792;28;20188;-62
2022/08/13 12:22:54;;;;;;;3.40;3.10;;;20.30;72.50;;;;;;5078645;28;20191;-62
2022/08/13 12:25:22;;;;;;;3.63;3.20;;;20.30;73.10;;;;;;5107559;28;20224;-62
2022/08/13 12:27:47;;;;;;;3.47;3.10;;;20.40;72.40;;;;;;5095884;28;20180;-62
2022/08/13 12:30:13;;;;;;;3.83;3.53;;;20.30;71.60;;;;;;5084347;28;20215;-62
2022/08/13 12:32:39;;;;;;;4.23;3.00;;;20.40;70.90;;;;;;5075622;28;20204;-62
2022/08/13 12:35:05;;;;;;;3.60;3.30;;;20.30;70.80;;;;;;5077535;28;20192;-62
2022/08/13 12:37:31;;;;;;;3.70;3.40;;;20.30;71.00;;;;;;5096824;28;20193;-62
2022/08/13 12:39:58;;;;;;;3.47;3.17;;;20.40;71.40;;;;;;5082812;28;20215;-62
2022/08/13 12:42:27;;;;;;;3.50;3.20;;;20.40;71.40;;;;;;5106732;28;20199;-62
2022/08/13 12:44:53;;;;;;;2.97;2.77;;;20.60;72.10;;;;;;5093725;28;20303;-62
2022/08/13 12:47:19;;;;;;;3.47;3.17;;;20.60;68.90;;;;;;5076552;28;20192;-62
2022/08/13 12:49:45;;;;;;;3.60;3.30;;;20.60;70.40;;;;;;5077295;28;20193;-62
2022/08/13 12:52:10;;;;;;;3.70;3.40;;;20.60;69.80;;;;;;5093669;28;20200;-62
2022/08/13 12:54:36;;;;;;;3.20;2.90;;;20.70;70.70;;;;;;5109270;28;20212;-62
2022/08/13 12:57:02;;;;;;;3.60;3.27;;;20.70;70.90;;;;;;5097928;28;20197;-62
2022/08/13 12:59:28;;;;;;;3.80;3.20;;;20.80;71.60;;;;;;5094119;28;20188;-62
2022/08/13 13:01:54;;;;;;;3.10;2.87;;;20.90;71.40;;;;;;5076312;28;20184;-62
2022/08/13 13:04:22;;;;;;;3.43;3.13;;;21.10;72.40;;;;;;5112905;28;20215;-63
2022/08/13 13:06:52;;;;;;;5.33;3.17;;;21.20;70.00;;;;;;5099404;28;20267;-61
2022/08/13 13:09:18;;;;;;;3.27;2.97;;;21.10;69.00;;;;;;5106112;28;20195;-61